<?xml version="1.0" encoding="UTF-8" standalone="no" ?>
<gpx xmlns="http://www.topografix.com/GPX/1/1" xmlns:xsi="http://www.w3.org/2001/XMLSchema-instance" xsi:schemaLocation="http://www.topografix.com/GPX/1/1 http://www.topografix.com/GPX/1/1/gpx.xsd" version="1.1" creator="VisuGPX - https://www.visugpx.com">
  <metadata>
    <name>Vacances 2021</name>
  </metadata>
  <trk>
    <name><![CDATA[Journal actif: 2021-07-24 10:39]]></name>
    <trkseg>
      <trkpt lat="49.16196" lon="5.388">
        <ele>196.25</ele>
        <time>2021-07-24T12:39:34Z</time>
      </trkpt>
      <trkpt lat="49.16196" lon="5.388">
        <ele>196.73</ele>
        <time>2021-07-24T12:39:59Z</time>
      </trkpt>
      <trkpt lat="49.16203" lon="5.38752">
        <ele>197.69</ele>
        <time>2021-07-24T12:40:10Z</time>
      </trkpt>
      <trkpt lat="49.16205" lon="5.38661">
        <ele>197.21</ele>
        <time>2021-07-24T12:40:23Z</time>
      </trkpt>
      <trkpt lat="49.16212" lon="5.38658">
        <ele>196.73</ele>
        <time>2021-07-24T12:40:25Z</time>
      </trkpt>
      <trkpt lat="49.16229" lon="5.3865">
        <ele>196.73</ele>
        <time>2021-07-24T12:40:29Z</time>
      </trkpt>
      <trkpt lat="49.16234" lon="5.38647">
        <ele>196.73</ele>
        <time>2021-07-24T12:40:30Z</time>
      </trkpt>
      <trkpt lat="49.16239" lon="5.38645">
        <ele>196.73</ele>
        <time>2021-07-24T12:40:31Z</time>
      </trkpt>
      <trkpt lat="49.16244" lon="5.38642">
        <ele>196.73</ele>
        <time>2021-07-24T12:40:32Z</time>
      </trkpt>
      <trkpt lat="49.16249" lon="5.3864">
        <ele>196.73</ele>
        <time>2021-07-24T12:40:33Z</time>
      </trkpt>
      <trkpt lat="49.16255" lon="5.38639">
        <ele>196.73</ele>
        <time>2021-07-24T12:40:34Z</time>
      </trkpt>
      <trkpt lat="49.16309" lon="5.38632">
        <ele>198.17</ele>
        <time>2021-07-24T12:40:45Z</time>
      </trkpt>
      <trkpt lat="49.16384" lon="5.3862">
        <ele>200.09</ele>
        <time>2021-07-24T12:40:57Z</time>
      </trkpt>
      <trkpt lat="49.1639" lon="5.38619">
        <ele>200.57</ele>
        <time>2021-07-24T12:40:58Z</time>
      </trkpt>
      <trkpt lat="49.16396" lon="5.38616">
        <ele>200.09</ele>
        <time>2021-07-24T12:40:59Z</time>
      </trkpt>
      <trkpt lat="49.16402" lon="5.38611">
        <ele>200.09</ele>
        <time>2021-07-24T12:41:00Z</time>
      </trkpt>
      <trkpt lat="49.16407" lon="5.38607">
        <ele>200.09</ele>
        <time>2021-07-24T12:41:01Z</time>
      </trkpt>
      <trkpt lat="49.16417" lon="5.38596">
        <ele>200.09</ele>
        <time>2021-07-24T12:41:02Z</time>
      </trkpt>
      <trkpt lat="49.16417" lon="5.38596">
        <ele>199.61</ele>
        <time>2021-07-24T12:41:03Z</time>
      </trkpt>
      <trkpt lat="49.16421" lon="5.38588">
        <ele>199.13</ele>
        <time>2021-07-24T12:41:04Z</time>
      </trkpt>
      <trkpt lat="49.16425" lon="5.3858">
        <ele>199.13</ele>
        <time>2021-07-24T12:41:05Z</time>
      </trkpt>
      <trkpt lat="49.16429" lon="5.38573">
        <ele>199.13</ele>
        <time>2021-07-24T12:41:06Z</time>
      </trkpt>
      <trkpt lat="49.16431" lon="5.38564">
        <ele>198.65</ele>
        <time>2021-07-24T12:41:07Z</time>
      </trkpt>
      <trkpt lat="49.16456" lon="5.38444">
        <ele>195.28</ele>
        <time>2021-07-24T12:41:21Z</time>
      </trkpt>
      <trkpt lat="49.1646" lon="5.38425">
        <ele>195.77</ele>
        <time>2021-07-24T12:41:25Z</time>
      </trkpt>
      <trkpt lat="49.16459" lon="5.38422">
        <ele>195.77</ele>
        <time>2021-07-24T12:41:26Z</time>
      </trkpt>
      <trkpt lat="49.16455" lon="5.38425">
        <ele>196.25</ele>
        <time>2021-07-24T12:41:27Z</time>
      </trkpt>
      <trkpt lat="49.16454" lon="5.38424">
        <ele>196.25</ele>
        <time>2021-07-24T12:41:28Z</time>
      </trkpt>
      <trkpt lat="49.16452" lon="5.38423">
        <ele>196.25</ele>
        <time>2021-07-24T12:41:29Z</time>
      </trkpt>
      <trkpt lat="49.1645" lon="5.38422">
        <ele>196.73</ele>
        <time>2021-07-24T12:41:30Z</time>
      </trkpt>
      <trkpt lat="49.16446" lon="5.3842">
        <ele>196.73</ele>
        <time>2021-07-24T12:41:31Z</time>
      </trkpt>
      <trkpt lat="49.16398" lon="5.38437">
        <ele>199.13</ele>
        <time>2021-07-24T12:41:47Z</time>
      </trkpt>
      <trkpt lat="49.16351" lon="5.38437">
        <ele>198.65</ele>
        <time>2021-07-24T12:42:01Z</time>
      </trkpt>
      <trkpt lat="49.1631" lon="5.38439">
        <ele>196.73</ele>
        <time>2021-07-24T12:42:09Z</time>
      </trkpt>
      <trkpt lat="49.1631" lon="5.38439">
        <ele>196.73</ele>
        <time>2021-07-24T12:42:10Z</time>
      </trkpt>
      <trkpt lat="49.16254" lon="5.38453">
        <ele>195.28</ele>
        <time>2021-07-24T12:42:23Z</time>
      </trkpt>
      <trkpt lat="49.16233" lon="5.38457">
        <ele>194.32</ele>
        <time>2021-07-24T12:42:29Z</time>
      </trkpt>
      <trkpt lat="49.1623" lon="5.38457">
        <ele>194.32</ele>
        <time>2021-07-24T12:42:30Z</time>
      </trkpt>
      <trkpt lat="49.16216" lon="5.38441">
        <ele>194.8</ele>
        <time>2021-07-24T12:42:31Z</time>
      </trkpt>
      <trkpt lat="49.16215" lon="5.38435">
        <ele>194.8</ele>
        <time>2021-07-24T12:42:32Z</time>
      </trkpt>
      <trkpt lat="49.16213" lon="5.38427">
        <ele>195.28</ele>
        <time>2021-07-24T12:42:33Z</time>
      </trkpt>
      <trkpt lat="49.16205" lon="5.38384">
        <ele>197.21</ele>
        <time>2021-07-24T12:42:39Z</time>
      </trkpt>
      <trkpt lat="49.16201" lon="5.38361">
        <ele>197.21</ele>
        <time>2021-07-24T12:42:41Z</time>
      </trkpt>
      <trkpt lat="49.16181" lon="5.38242">
        <ele>204.9</ele>
        <time>2021-07-24T12:42:54Z</time>
      </trkpt>
      <trkpt lat="49.16181" lon="5.38242">
        <ele>206.34</ele>
        <time>2021-07-24T12:42:55Z</time>
      </trkpt>
      <trkpt lat="49.1618" lon="5.38234">
        <ele>207.3</ele>
        <time>2021-07-24T12:42:56Z</time>
      </trkpt>
      <trkpt lat="49.16178" lon="5.38228">
        <ele>207.78</ele>
        <time>2021-07-24T12:42:57Z</time>
      </trkpt>
      <trkpt lat="49.16172" lon="5.38193">
        <ele>211.63</ele>
        <time>2021-07-24T12:43:03Z</time>
      </trkpt>
      <trkpt lat="49.16171" lon="5.38188">
        <ele>213.07</ele>
        <time>2021-07-24T12:43:04Z</time>
      </trkpt>
      <trkpt lat="49.1616" lon="5.38177">
        <ele>213.07</ele>
        <time>2021-07-24T12:43:05Z</time>
      </trkpt>
      <trkpt lat="49.16155" lon="5.38184">
        <ele>214.03</ele>
        <time>2021-07-24T12:43:06Z</time>
      </trkpt>
      <trkpt lat="49.16155" lon="5.38184">
        <ele>214.51</ele>
        <time>2021-07-24T12:43:07Z</time>
      </trkpt>
      <trkpt lat="49.16152" lon="5.38186">
        <ele>214.99</ele>
        <time>2021-07-24T12:43:08Z</time>
      </trkpt>
      <trkpt lat="49.16151" lon="5.38195">
        <ele>215.95</ele>
        <time>2021-07-24T12:43:09Z</time>
      </trkpt>
      <trkpt lat="49.1615" lon="5.38201">
        <ele>215.95</ele>
        <time>2021-07-24T12:43:10Z</time>
      </trkpt>
      <trkpt lat="49.1615" lon="5.38206">
        <ele>216.43</ele>
        <time>2021-07-24T12:43:11Z</time>
      </trkpt>
      <trkpt lat="49.1615" lon="5.38212">
        <ele>218.84</ele>
        <time>2021-07-24T12:43:12Z</time>
      </trkpt>
      <trkpt lat="49.16143" lon="5.3822">
        <ele>219.8</ele>
        <time>2021-07-24T12:43:13Z</time>
      </trkpt>
      <trkpt lat="49.16143" lon="5.3822">
        <ele>219.32</ele>
        <time>2021-07-24T12:43:14Z</time>
      </trkpt>
      <trkpt lat="49.16135" lon="5.38224">
        <ele>219.32</ele>
        <time>2021-07-24T12:43:15Z</time>
      </trkpt>
      <trkpt lat="49.16135" lon="5.38224">
        <ele>219.8</ele>
        <time>2021-07-24T12:43:16Z</time>
      </trkpt>
      <trkpt lat="49.16072" lon="5.38248">
        <ele>225.57</ele>
        <time>2021-07-24T12:43:29Z</time>
      </trkpt>
      <trkpt lat="49.1603" lon="5.38265">
        <ele>227.49</ele>
        <time>2021-07-24T12:43:38Z</time>
      </trkpt>
      <trkpt lat="49.16025" lon="5.38268">
        <ele>227.97</ele>
        <time>2021-07-24T12:43:39Z</time>
      </trkpt>
      <trkpt lat="49.15996" lon="5.38285">
        <ele>229.41</ele>
        <time>2021-07-24T12:43:49Z</time>
      </trkpt>
      <trkpt lat="49.15988" lon="5.3826">
        <ele>231.33</ele>
        <time>2021-07-24T12:44:02Z</time>
      </trkpt>
      <trkpt lat="49.15978" lon="5.3823">
        <ele>232.78</ele>
        <time>2021-07-24T12:44:15Z</time>
      </trkpt>
      <trkpt lat="49.15978" lon="5.3823">
        <ele>233.74</ele>
        <time>2021-07-24T12:44:33Z</time>
      </trkpt>
      <trkpt lat="49.15978" lon="5.3823">
        <ele>234.7</ele>
        <time>2021-07-24T12:45:26Z</time>
      </trkpt>
      <trkpt lat="49.15978" lon="5.3823">
        <ele>235.18</ele>
        <time>2021-07-24T12:47:22Z</time>
      </trkpt>
      <trkpt lat="49.15978" lon="5.3823">
        <ele>234.7</ele>
        <time>2021-07-24T12:48:49Z</time>
      </trkpt>
      <trkpt lat="49.15978" lon="5.3823">
        <ele>234.7</ele>
        <time>2021-07-24T12:49:49Z</time>
      </trkpt>
      <trkpt lat="49.15978" lon="5.3823">
        <ele>235.66</ele>
        <time>2021-07-24T12:51:03Z</time>
      </trkpt>
      <trkpt lat="49.15978" lon="5.3823">
        <ele>235.18</ele>
        <time>2021-07-24T12:52:14Z</time>
      </trkpt>
      <trkpt lat="49.15978" lon="5.3823">
        <ele>235.66</ele>
        <time>2021-07-24T12:53:55Z</time>
      </trkpt>
      <trkpt lat="49.15978" lon="5.3823">
        <ele>234.22</ele>
        <time>2021-07-24T12:54:57Z</time>
      </trkpt>
      <trkpt lat="49.15978" lon="5.3823">
        <ele>232.78</ele>
        <time>2021-07-24T12:55:51Z</time>
      </trkpt>
      <trkpt lat="49.15978" lon="5.3823">
        <ele>233.26</ele>
        <time>2021-07-24T12:57:35Z</time>
      </trkpt>
      <trkpt lat="49.15978" lon="5.3823">
        <ele>233.26</ele>
        <time>2021-07-24T12:59:47Z</time>
      </trkpt>
      <trkpt lat="49.15978" lon="5.3823">
        <ele>233.26</ele>
        <time>2021-07-24T13:02:45Z</time>
      </trkpt>
      <trkpt lat="49.15978" lon="5.3823">
        <ele>233.74</ele>
        <time>2021-07-24T13:04:54Z</time>
      </trkpt>
      <trkpt lat="49.15978" lon="5.3823">
        <ele>233.74</ele>
        <time>2021-07-24T13:06:47Z</time>
      </trkpt>
      <trkpt lat="49.15978" lon="5.3823">
        <ele>234.22</ele>
        <time>2021-07-24T13:08:35Z</time>
      </trkpt>
      <trkpt lat="49.15978" lon="5.3823">
        <ele>234.22</ele>
        <time>2021-07-24T13:09:50Z</time>
      </trkpt>
      <trkpt lat="49.15978" lon="5.3823">
        <ele>234.7</ele>
        <time>2021-07-24T13:11:00Z</time>
      </trkpt>
      <trkpt lat="49.15978" lon="5.3823">
        <ele>234.7</ele>
        <time>2021-07-24T13:11:36Z</time>
      </trkpt>
      <trkpt lat="49.15969" lon="5.38201">
        <ele>235.18</ele>
        <time>2021-07-24T13:11:56Z</time>
      </trkpt>
      <trkpt lat="49.15958" lon="5.38156">
        <ele>235.18</ele>
        <time>2021-07-24T13:12:05Z</time>
      </trkpt>
      <trkpt lat="49.15958" lon="5.38148">
        <ele>235.66</ele>
        <time>2021-07-24T13:12:06Z</time>
      </trkpt>
      <trkpt lat="49.15958" lon="5.38063">
        <ele>236.62</ele>
        <time>2021-07-24T13:12:18Z</time>
      </trkpt>
      <trkpt lat="49.15958" lon="5.38056">
        <ele>237.1</ele>
        <time>2021-07-24T13:12:19Z</time>
      </trkpt>
      <trkpt lat="49.15958" lon="5.38049">
        <ele>236.62</ele>
        <time>2021-07-24T13:12:20Z</time>
      </trkpt>
      <trkpt lat="49.15957" lon="5.38043">
        <ele>237.1</ele>
        <time>2021-07-24T13:12:21Z</time>
      </trkpt>
      <trkpt lat="49.15958" lon="5.38036">
        <ele>237.1</ele>
        <time>2021-07-24T13:12:22Z</time>
      </trkpt>
      <trkpt lat="49.1596" lon="5.3803">
        <ele>237.1</ele>
        <time>2021-07-24T13:12:23Z</time>
      </trkpt>
      <trkpt lat="49.15962" lon="5.38023">
        <ele>237.1</ele>
        <time>2021-07-24T13:12:24Z</time>
      </trkpt>
      <trkpt lat="49.15977" lon="5.37968">
        <ele>239.02</ele>
        <time>2021-07-24T13:12:34Z</time>
      </trkpt>
      <trkpt lat="49.15978" lon="5.37965">
        <ele>239.02</ele>
        <time>2021-07-24T13:12:35Z</time>
      </trkpt>
      <trkpt lat="49.15979" lon="5.37961">
        <ele>239.51</ele>
        <time>2021-07-24T13:12:36Z</time>
      </trkpt>
      <trkpt lat="49.15979" lon="5.37961">
        <ele>240.95</ele>
        <time>2021-07-24T13:12:51Z</time>
      </trkpt>
      <trkpt lat="49.15979" lon="5.37961">
        <ele>240.95</ele>
        <time>2021-07-24T13:13:08Z</time>
      </trkpt>
      <trkpt lat="49.15979" lon="5.37961">
        <ele>241.43</ele>
        <time>2021-07-24T13:13:44Z</time>
      </trkpt>
      <trkpt lat="49.15979" lon="5.37961">
        <ele>241.43</ele>
        <time>2021-07-24T13:13:45Z</time>
      </trkpt>
      <trkpt lat="49.15982" lon="5.37952">
        <ele>241.43</ele>
        <time>2021-07-24T13:13:46Z</time>
      </trkpt>
      <trkpt lat="49.15983" lon="5.37948">
        <ele>241.43</ele>
        <time>2021-07-24T13:13:47Z</time>
      </trkpt>
      <trkpt lat="49.15983" lon="5.37948">
        <ele>241.43</ele>
        <time>2021-07-24T13:13:48Z</time>
      </trkpt>
      <trkpt lat="49.15985" lon="5.3794">
        <ele>241.43</ele>
        <time>2021-07-24T13:13:49Z</time>
      </trkpt>
      <trkpt lat="49.15985" lon="5.3794">
        <ele>241.91</ele>
        <time>2021-07-24T13:13:50Z</time>
      </trkpt>
      <trkpt lat="49.15975" lon="5.37924">
        <ele>239.99</ele>
        <time>2021-07-24T13:14:09Z</time>
      </trkpt>
      <trkpt lat="49.15947" lon="5.37878">
        <ele>237.1</ele>
        <time>2021-07-24T13:14:22Z</time>
      </trkpt>
      <trkpt lat="49.15941" lon="5.37834">
        <ele>235.18</ele>
        <time>2021-07-24T13:14:36Z</time>
      </trkpt>
      <trkpt lat="49.1594" lon="5.37827">
        <ele>234.7</ele>
        <time>2021-07-24T13:14:52Z</time>
      </trkpt>
    </trkseg>
  </trk>
</gpx>